Time;durP1;ratioP1;P1;durP2;ratioP2;P2;SDS_P1;SDS_P2;PMS_P1;PMS_P2;Temp;Humidity;BMP_temperature;BMP_pressure;BME280_temperature;BME280_humidity;BME280_pressure;Samples;Min_cycle;Max_cycle;Signal;HPM_P1;HPM_P2
2021/08/10 00:00:08;;;;;;;8.82;4.53;;;;;;;13.72;97.63;100998.75;691953;28;1439;-53
2021/08/10 00:00:31;;;;;;;12.80;4.50;;;;;;;13.70;97.52;100997.03;691934;28;1387;-50
2021/08/10 00:00:51;;;;;;;10.40;4.33;;;;;;;13.70;97.47;100997.03;689992;28;1097;-49
2021/08/10 00:01:12;;;;;;;8.20;4.20;;;;;;;13.69;97.46;100997.91;690239;28;1399;-50
2021/08/10 00:01:32;;;;;;;7.75;4.10;;;;;;;13.68;97.16;100994.44;691782;28;3935;-50
2021/08/10 00:01:53;;;;;;;6.68;3.70;;;;;;;13.70;96.81;101002.28;691690;28;4860;-52
2021/08/10 00:02:13;;;;;;;6.33;3.50;;;;;;;13.71;96.81;100998.78;692831;28;1777;-50
2021/08/10 00:02:34;;;;;;;7.13;3.40;;;;;;;13.72;96.66;100997.88;692116;28;2498;-50
2021/08/10 00:02:54;;;;;;;9.37;4.00;;;;;;;13.73;96.84;100997.84;693851;28;4339;-50
2021/08/10 00:03:15;;;;;;;8.77;4.50;;;;;;;13.73;96.27;100999.63;694432;28;1608;-50
2021/08/10 00:03:36;;;;;;;6.85;4.00;;;;;;;13.73;96.28;100995.22;694362;28;1471;-50
2021/08/10 00:03:56;;;;;;;6.55;3.65;;;;;;;13.74;96.05;101002.22;693583;28;1476;-51
2021/08/10 00:04:16;;;;;;;6.97;3.90;;;;;;;13.75;97.01;100989.97;694703;28;1473;-51
2021/08/10 00:04:37;;;;;;;10.07;4.22;;;;;;;13.73;97.30;101002.25;694233;28;4028;-54
2021/08/10 00:04:57;;;;;;;9.13;4.40;;;;;;;13.70;97.49;100997.88;694491;28;1675;-52
2021/08/10 00:05:17;;;;;;;8.35;4.10;;;;;;;13.69;97.50;101000.53;693795;28;1645;-49
2021/08/10 00:05:38;;;;;;;8.10;3.80;;;;;;;13.68;96.88;100999.69;694171;28;4808;-52
2021/08/10 00:05:59;;;;;;;6.40;3.70;;;;;;;13.67;97.24;101004.97;693795;28;953;-54
2021/08/10 00:06:19;;;;;;;7.25;4.07;;;;;;;13.65;97.08;101004.09;694943;28;1490;-50
2021/08/10 00:06:40;;;;;;;10.37;4.33;;;;;;;13.59;97.56;101003.28;694312;28;1458;-50
2021/08/10 00:07:00;;;;;;;10.05;4.30;;;;;;;13.55;97.40;101004.19;693829;28;1442;-51
2021/08/10 00:07:21;;;;;;;7.93;4.00;;;;;;;13.55;97.45;101004.19;694095;28;4348;-50
2021/08/10 00:07:41;;;;;;;8.15;3.95;;;;;;;13.53;97.37;101005.97;694661;28;4428;-54
2021/08/10 00:08:02;;;;;;;6.87;3.63;;;;;;;13.53;97.55;100997.25;693653;28;1809;-49
2021/08/10 00:08:22;;;;;;;6.50;4.05;;;;;;;13.51;97.67;100999.84;693753;28;1461;-52
2021/08/10 00:08:43;;;;;;;7.95;4.30;;;;;;;13.50;97.67;100999.88;691594;28;4429;-50
2021/08/10 00:09:03;;;;;;;8.27;4.37;;;;;;;13.50;97.91;101003.41;692690;28;1625;-50
2021/08/10 00:09:23;;;;;;;9.03;4.20;;;;;;;13.49;97.66;101000.78;692955;28;1078;-50
2021/08/10 00:09:44;;;;;;;8.25;4.00;;;;;;;13.47;98.01;100995.53;690020;28;1927;-51
2021/08/10 00:10:05;;;;;;;11.57;4.50;;;;;;;13.48;97.84;101001.66;689834;28;1671;-50
2021/08/10 00:10:25;;;;;;;10.57;4.15;;;;;;;13.46;97.93;100999.06;689397;28;3719;-53
2021/08/10 00:10:47;;;;;;;7.72;4.00;;;;;;;13.44;98.15;101000.81;692112;28;4366;-53
2021/08/10 00:11:08;;;;;;;8.32;4.07;;;;;;;13.42;97.91;101003.47;689853;28;1530;-51
2021/08/10 00:11:28;;;;;;;10.97;4.00;;;;;;;13.41;98.23;100996.47;690397;28;1164;-50
2021/08/10 00:11:49;;;;;;;9.18;3.80;;;;;;;13.43;97.36;100993.81;690865;28;4915;-51
2021/08/10 00:12:10;;;;;;;7.57;3.73;;;;;;;13.47;97.17;101000.78;691467;28;1726;-50
2021/08/10 00:12:30;;;;;;;6.47;3.97;;;;;;;13.47;97.66;100995.53;692052;28;1313;-52
2021/08/10 00:12:50;;;;;;;7.70;4.20;;;;;;;13.46;97.83;100993.81;694616;28;1289;-50
2021/08/10 00:13:12;;;;;;;7.77;4.20;;;;;;;13.45;97.64;100997.31;695232;28;1779;-51
2021/08/10 00:13:32;;;;;;;8.90;4.28;;;;;;;13.44;97.44;100999.09;695294;28;4119;-52
2021/08/10 00:13:53;;;;;;;11.10;4.07;;;;;;;13.44;97.66;100990.31;694853;28;4407;-50
2021/08/10 00:14:13;;;;;;;9.32;3.88;;;;;;;13.45;97.09;100992.06;694449;28;1718;-52
2021/08/10 00:14:34;;;;;;;7.60;3.80;;;;;;;13.47;97.14;100992.03;695013;28;1758;-54
2021/08/10 00:14:54;;;;;;;7.97;3.70;;;;;;;13.47;97.49;100994.66;693737;28;4397;-52
2021/08/10 00:15:14;;;;;;;7.83;3.83;;;;;;;13.48;97.20;100993.78;693435;28;1778;-50
2021/08/10 00:15:35;;;;;;;7.68;3.83;;;;;;;13.48;97.59;100997.28;695001;28;1762;-50
2021/08/10 00:15:55;;;;;;;8.40;3.80;;;;;;;13.49;97.19;100993.78;693857;28;1678;-50
2021/08/10 00:16:16;;;;;;;10.27;4.20;;;;;;;13.49;97.04;100988.50;693811;28;1491;-51
2021/08/10 00:16:37;;;;;;;7.60;3.80;;;;;;;13.50;97.13;100989.38;690472;28;2575;-51
2021/08/10 00:16:57;;;;;;;7.55;3.72;;;;;;;13.49;97.29;100990.28;691770;28;4103;-53
2021/08/10 00:17:18;;;;;;;9.73;3.95;;;;;;;13.44;97.26;100993.84;691387;28;1772;-51
2021/08/10 00:17:38;;;;;;;6.63;3.70;;;;;;;13.43;96.97;100993.81;690661;28;4743;-52
2021/08/10 00:17:59;;;;;;;6.43;3.80;;;;;;;13.45;97.18;100994.69;690119;28;1631;-52
2021/08/10 00:18:19;;;;;;;6.33;3.67;;;;;;;13.44;96.95;100991.22;690196;28;1429;-50
2021/08/10 00:18:39;;;;;;;10.00;3.85;;;;;;;13.45;97.05;100992.06;692662;28;1632;-52
2021/08/10 00:19:00;;;;;;;9.20;3.87;;;;;;;13.46;97.23;100988.56;692918;28;1132;-51
2021/08/10 00:19:20;;;;;;;7.45;3.80;;;;;;;13.45;96.80;100992.06;689546;28;2503;-49
2021/08/10 00:19:41;;;;;;;7.90;3.43;;;;;;;13.43;96.84;100988.56;689798;28;4020;-52
2021/08/10 00:20:01;;;;;;;6.67;3.23;;;;;;;13.41;96.10;100979.84;691871;28;4625;-53
2021/08/10 00:20:22;;;;;;;7.50;3.60;;;;;;;13.39;96.49;100990.38;692062;28;1779;-52
2021/08/10 00:20:42;;;;;;;7.43;4.10;;;;;;;13.40;96.65;100994.75;691171;28;4557;-51
2021/08/10 00:21:03;;;;;;;8.50;4.10;;;;;;;13.40;96.90;100999.13;692131;28;1501;-50
2021/08/10 00:21:23;;;;;;;8.13;3.90;;;;;;;13.39;97.01;100992.16;696855;28;1558;-50
2021/08/10 00:21:43;;;;;;;7.70;3.97;;;;;;;13.36;96.57;100987.78;695646;28;1541;-50
2021/08/10 00:22:04;;;;;;;6.93;3.70;;;;;;;13.36;96.37;100987.78;695245;28;1908;-50
2021/08/10 00:22:25;;;;;;;7.03;3.60;;;;;;;13.35;96.78;100999.19;692724;28;1968;-51
2021/08/10 00:22:45;;;;;;;9.30;3.80;;;;;;;13.32;97.03;100993.03;692419;28;4232;-51
2021/08/10 00:23:06;;;;;;;7.43;3.80;;;;;;;13.32;97.15;101001.81;692175;28;4174;-49
2021/08/10 00:23:26;;;;;;;7.27;3.90;;;;;;;13.33;96.79;100995.66;691890;28;1651;-52
2021/08/10 00:23:47;;;;;;;7.10;3.80;;;;;;;13.35;96.85;100985.16;691485;28;4527;-52
2021/08/10 00:24:08;;;;;;;6.45;3.55;;;;;;;13.36;96.71;100993.03;692779;28;2200;-49
2021/08/10 00:24:28;;;;;;;7.13;3.70;;;;;;;13.37;96.56;100988.66;694614;28;1365;-52
2021/08/10 00:24:48;;;;;;;9.67;4.00;;;;;;;13.36;97.27;100993.03;694474;28;2060;-50
2021/08/10 00:25:09;;;;;;;9.50;3.80;;;;;;;13.34;97.06;100991.28;693871;28;2055;-50
2021/08/10 00:25:30;;;;;;;6.90;4.00;;;;;;;13.33;96.82;100992.16;692170;28;1928;-50
2021/08/10 00:25:50;;;;;;;7.32;3.80;;;;;;;13.32;97.24;100988.69;691760;28;4501;-50
2021/08/10 00:26:14;;;;;;;7.07;4.03;;;;;;;13.30;97.03;100993.06;692080;28;3048;-51
2021/08/10 00:26:34;;;;;;;7.35;4.10;;;;;;;13.28;96.51;100993.09;690018;28;4312;-51
2021/08/10 00:26:55;;;;;;;8.03;3.83;;;;;;;13.29;96.45;100994.84;690323;28;2206;-54
2021/08/10 00:27:15;;;;;;;6.70;3.38;;;;;;;13.34;96.23;100994.78;689445;28;2043;-51
2021/08/10 00:27:36;;;;;;;6.73;3.37;;;;;;;13.36;96.54;100992.16;690173;28;2143;-50
2021/08/10 00:27:58;;;;;;;8.32;3.72;;;;;;;13.34;97.13;100994.78;690303;28;1810;-51
2021/08/10 00:28:19;;;;;;;9.98;4.15;;;;;;;13.33;96.85;100993.03;689888;28;2052;-50
2021/08/10 00:28:39;;;;;;;7.90;3.80;;;;;;;13.33;96.75;100993.03;689919;28;1986;-50
2021/08/10 00:29:03;;;;;;;7.97;3.97;;;;;;;13.30;96.68;100995.69;690209;28;4079;-51
2021/08/10 00:29:24;;;;;;;9.63;4.13;;;;;;;13.28;96.93;100990.47;691329;28;1663;-51
2021/08/10 00:29:44;;;;;;;9.93;4.10;;;;;;;13.28;96.93;100989.59;691935;28;4703;-52
2021/08/10 00:30:06;;;;;;;8.65;4.13;;;;;;;13.27;96.88;100999.22;691877;28;1971;-50
2021/08/10 00:30:26;;;;;;;8.30;4.13;;;;;;;13.26;97.31;100993.97;693274;28;1716;-51
2021/08/10 00:30:47;;;;;;;8.43;4.10;;;;;;;13.24;97.10;100987.91;692237;28;2165;-50
2021/08/10 00:31:07;;;;;;;9.93;4.13;;;;;;;13.23;97.65;100992.25;692851;28;1685;-51
2021/08/10 00:31:28;;;;;;;6.72;3.90;;;;;;;13.25;97.29;100989.59;688822;28;2029;-51
2021/08/10 00:31:48;;;;;;;8.03;4.00;;;;;;;13.26;97.30;100992.25;689584;28;1433;-52
2021/08/10 00:32:09;;;;;;;11.38;4.18;;;;;;;13.26;97.41;100991.34;686923;28;3874;-50
2021/08/10 00:32:30;;;;;;;12.13;4.40;;;;;;;13.25;97.57;100985.25;686456;28;2381;-51
2021/08/10 00:32:51;;;;;;;10.43;4.10;;;;;;;13.24;97.58;100987.91;688536;28;4313;-51
2021/08/10 00:33:13;;;;;;;10.63;4.35;;;;;;;13.24;97.29;100983.50;689514;28;1790;-51
2021/08/10 00:33:34;;;;;;;8.15;4.00;;;;;;;13.26;97.11;100987.00;685352;28;1712;-54
2021/08/10 00:33:54;;;;;;;6.90;3.60;;;;;;;13.26;96.93;100981.75;685672;28;1850;-53
2021/08/10 00:34:15;;;;;;;6.77;3.60;;;;;;;13.28;96.42;100987.84;684815;28;1770;-53
2021/08/10 00:34:35;;;;;;;5.47;3.05;;;;;;;13.34;95.51;100989.53;687640;28;1541;-53
2021/08/10 00:34:56;;;;;;;5.50;2.97;;;;;;;13.41;95.12;100985.97;688468;28;2155;-53
2021/08/10 00:35:17;;;;;;;6.60;3.40;;;;;;;13.42;95.27;100985.09;684456;28;4225;-52
2021/08/10 00:35:37;;;;;;;8.18;3.50;;;;;;;13.42;95.25;100976.34;689217;28;4581;-52
2021/08/10 00:35:58;;;;;;;6.80;3.57;;;;;;;13.42;95.03;100987.72;689690;28;1756;-51
2021/08/10 00:36:19;;;;;;;5.55;3.33;;;;;;;13.42;94.66;100990.34;691475;28;1720;-52
2021/08/10 00:36:40;;;;;;;5.32;3.40;;;;;;;13.43;94.59;100984.22;687289;28;1462;-50
2021/08/10 00:37:04;;;;;;;5.30;3.40;;;;;;;13.45;94.25;100982.41;685248;28;1230;-50
2021/08/10 00:37:24;;;;;;;5.85;3.58;;;;;;;13.45;94.88;100987.66;686389;28;2047;-50
2021/08/10 00:37:46;;;;;;;6.13;3.60;;;;;;;13.40;95.30;100988.63;686451;28;2262;-55
2021/08/10 00:38:08;;;;;;;6.90;3.53;;;;;;;13.36;95.58;100979.91;685954;28;4044;-52
2021/08/10 00:38:29;;;;;;;7.28;3.95;;;;;;;13.34;96.13;100986.03;687574;28;3073;-50
2021/08/10 00:38:50;;;;;;;7.30;3.80;;;;;;;13.32;96.07;100979.91;686939;28;4465;-50
2021/08/10 00:39:10;;;;;;;6.45;3.33;;;;;;;13.33;95.80;100987.78;688418;28;1754;-50
2021/08/10 00:39:34;;;;;;;6.18;3.50;;;;;;;13.35;95.62;100985.16;686776;28;2042;-52
2021/08/10 00:39:54;;;;;;;6.30;3.42;;;;;;;13.35;95.38;100985.16;687118;28;1905;-51
2021/08/10 00:40:17;;;;;;;7.93;3.70;;;;;;;13.35;95.49;100985.16;687917;28;2183;-50
2021/08/10 00:40:39;;;;;;;7.75;3.58;;;;;;;13.36;95.24;100984.28;686947;28;1838;-50
2021/08/10 00:41:00;;;;;;;5.88;3.20;;;;;;;13.39;94.18;100982.50;689609;28;2010;-53
2021/08/10 00:41:21;;;;;;;5.35;3.15;;;;;;;13.48;93.15;100988.53;686947;28;4780;-50
2021/08/10 00:41:44;;;;;;;5.28;3.00;;;;;;;13.51;93.19;100984.09;687007;28;4677;-50
2021/08/10 00:42:05;;;;;;;5.77;3.30;;;;;;;13.51;93.60;100985.88;687586;28;1487;-51
2021/08/10 00:42:26;;;;;;;5.95;3.33;;;;;;;13.43;93.99;100984.22;686434;28;1597;-50
2021/08/10 00:42:47;;;;;;;5.70;3.30;;;;;;;13.39;94.48;100981.66;688748;28;1417;-50
2021/08/10 00:43:46;;;;;;;6.32;3.45;;;;;;;13.47;93.43;100984.16;685776;28;1763;-50
2021/08/10 00:44:13;;;;;;;5.43;3.08;;;;;;;13.53;92.93;100990.22;686228;28;3657;-52
2021/08/10 00:44:37;;;;;;;5.85;3.40;;;;;;;13.51;93.63;100981.47;683618;28;4563;-52
2021/08/10 00:44:58;;;;;;;6.97;3.38;;;;;;;13.44;94.58;100995.56;685258;28;1791;-52
2021/08/10 00:45:18;;;;;;;7.60;3.67;;;;;;;13.41;94.54;100990.34;682776;28;1423;-50
2021/08/10 00:45:39;;;;;;;7.90;3.60;;;;;;;13.38;95.03;100990.41;684615;28;1711;-53
2021/08/10 00:46:03;;;;;;;8.50;3.65;;;;;;;13.34;95.56;100992.16;683822;28;1353;-50
2021/08/10 00:46:23;;;;;;;8.55;3.97;;;;;;;13.32;95.54;100983.44;680513;28;1318;-51
2021/08/10 00:46:44;;;;;;;7.20;3.78;;;;;;;13.28;95.94;100982.59;682148;28;1485;-50
2021/08/10 00:47:05;;;;;;;6.50;3.80;;;;;;;13.29;95.09;100984.34;684211;28;3956;-51
2021/08/10 00:47:26;;;;;;;6.18;3.38;;;;;;;13.29;95.64;100989.59;681743;28;4348;-53
2021/08/10 00:47:46;;;;;;;7.20;3.60;;;;;;;13.29;96.01;100986.97;683333;28;5436;-50
2021/08/10 00:48:07;;;;;;;8.10;3.85;;;;;;;13.27;95.79;100978.22;684018;28;1959;-51
2021/08/10 00:48:28;;;;;;;7.25;3.97;;;;;;;13.26;95.98;100988.72;683999;28;1456;-51
2021/08/10 00:48:50;;;;;;;7.65;4.00;;;;;;;13.24;95.94;100982.66;687930;28;1420;-51
2021/08/10 00:49:14;;;;;;;6.93;3.80;;;;;;;13.24;95.78;100980.88;687177;28;1487;-51
2021/08/10 00:49:35;;;;;;;7.75;3.70;;;;;;;13.25;95.97;100981.72;688918;28;1686;-50
2021/08/10 00:49:55;;;;;;;7.90;3.40;;;;;;;13.27;95.48;100983.47;686343;28;1508;-51
2021/08/10 00:50:16;;;;;;;7.50;3.20;;;;;;;13.30;94.79;100982.56;684499;28;3950;-50
2021/08/10 00:50:39;;;;;;;5.72;3.03;;;;;;;13.31;94.81;100980.81;685534;28;4582;-50
2021/08/10 00:51:00;;;;;;;6.15;3.55;;;;;;;13.23;95.20;100981.75;685053;28;1623;-51
2021/08/10 00:51:22;;;;;;;10.02;3.80;;;;;;;13.17;95.51;100986.22;684535;28;1625;-51
2021/08/10 00:51:50;;;;;;;8.23;3.78;;;;;;;13.17;95.37;100981.84;686085;28;1671;-50
2021/08/10 00:52:11;;;;;;;6.20;3.17;;;;;;;13.23;94.79;100979.13;684168;28;1538;-50
2021/08/10 00:52:33;;;;;;;6.68;3.25;;;;;;;13.25;95.16;100987.88;684497;28;1693;-50
2021/08/10 00:52:54;;;;;;;7.77;3.67;;;;;;;13.25;95.07;100984.34;686203;28;1371;-51
2021/08/10 00:53:17;;;;;;;7.20;3.50;;;;;;;13.21;95.48;100980.91;684819;28;4109;-50
2021/08/10 00:53:38;;;;;;;6.20;3.70;;;;;;;13.23;95.03;100991.41;682127;28;4780;-51
2021/08/10 00:54:02;;;;;;;5.75;3.05;;;;;;;13.29;94.00;100986.06;685255;28;1296;-53
2021/08/10 00:54:24;;;;;;;7.00;3.13;;;;;;;13.33;94.05;100993.03;687790;28;1501;-49
2021/08/10 00:54:45;;;;;;;6.85;3.30;;;;;;;13.33;94.41;100987.78;687230;28;1389;-50
2021/08/10 00:55:08;;;;;;;6.18;3.40;;;;;;;13.33;93.96;100984.28;687569;28;1511;-50
2021/08/10 00:55:28;;;;;;;5.07;3.10;;;;;;;13.35;93.83;100990.41;686383;28;1479;-51
2021/08/10 00:55:50;;;;;;;5.55;3.05;;;;;;;13.32;94.90;100986.06;685559;28;2080;-50
2021/08/10 00:56:13;;;;;;;6.22;3.38;;;;;;;13.23;95.16;100987.00;685005;28;4690;-51
2021/08/10 00:56:38;;;;;;;6.05;3.70;;;;;;;13.20;95.46;100992.28;686561;28;4766;-50
2021/08/10 00:56:59;;;;;;;6.72;3.60;;;;;;;13.18;95.68;100987.94;685289;28;1903;-51
2021/08/10 00:57:29;;;;;;;5.35;3.67;;;;;;;13.16;95.50;100990.59;683477;28;6331;-50
2021/08/10 00:57:50;;;;;;;6.28;3.70;;;;;;;13.16;95.30;100985.34;682298;28;2173;-52
2021/08/10 00:58:13;;;;;;;6.00;3.65;;;;;;;13.16;95.55;100982.72;686349;28;2644;-51
2021/08/10 00:58:35;;;;;;;6.97;3.80;;;;;;;13.16;95.74;100982.72;686501;28;1498;-50
2021/08/10 00:58:55;;;;;;;7.57;3.45;;;;;;;13.21;95.13;100988.78;684721;28;3745;-52
2021/08/10 00:59:15;;;;;;;5.78;3.10;;;;;;;13.25;94.18;100985.25;683383;28;4983;-51
2021/08/10 00:59:41;;;;;;;7.05;3.47;;;;;;;13.25;94.70;100982.63;682358;28;4455;-49
2021/08/10 01:00:04;;;;;;;8.30;3.70;;;;;;;13.22;95.18;100985.28;685718;28;1531;-50
2021/08/10 01:00:25;;;;;;;6.95;3.60;;;;;;;13.22;94.92;100982.66;688332;28;1546;-50
2021/08/10 01:00:46;;;;;;;6.00;3.28;;;;;;;13.23;94.70;100984.38;686770;28;1468;-50
2021/08/10 01:01:07;;;;;;;6.10;3.30;;;;;;;13.26;94.68;100988.72;687461;28;1296;-51
2021/08/10 01:01:28;;;;;;;6.43;3.30;;;;;;;13.24;95.18;100983.50;686888;28;1635;-52
2021/08/10 01:01:49;;;;;;;7.22;3.92;;;;;;;13.22;95.55;100984.41;683596;28;4164;-52
2021/08/10 01:02:10;;;;;;;6.95;3.90;;;;;;;13.20;95.48;100984.41;682020;28;3984;-51
2021/08/10 01:02:31;;;;;;;7.07;3.60;;;;;;;13.19;95.16;100985.28;686933;28;2336;-51
2021/08/10 01:02:52;;;;;;;5.65;3.30;;;;;;;13.25;94.80;100979.09;688656;28;4766;-50
2021/08/10 01:03:13;;;;;;;5.87;3.30;;;;;;;13.23;94.59;100979.13;686001;28;1618;-51
2021/08/10 01:03:34;;;;;;;6.72;3.50;;;;;;;13.19;94.99;100985.28;684506;28;1696;-50
2021/08/10 01:03:55;;;;;;;7.10;3.50;;;;;;;13.18;94.74;100983.59;684499;28;1508;-52
2021/08/10 01:04:16;;;;;;;7.45;3.60;;;;;;;13.17;94.81;100979.22;684654;28;1949;-50
2021/08/10 01:04:37;;;;;;;7.67;3.57;;;;;;;13.13;95.44;100976.66;681714;29;1399;-49
2021/08/10 01:04:58;;;;;;;6.18;3.33;;;;;;;13.12;95.26;100983.63;683749;28;3989;-50
2021/08/10 01:05:20;;;;;;;7.38;3.40;;;;;;;13.11;95.56;100981.88;681792;28;4463;-52
2021/08/10 01:05:46;;;;;;;7.73;3.70;;;;;;;13.07;95.89;100985.41;681176;28;4400;-53
2021/08/10 01:06:12;;;;;;;6.88;3.50;;;;;;;13.08;95.71;100979.28;681464;28;1645;-51
2021/08/10 01:06:58;;;;;;;5.55;3.33;;;;;;;13.10;95.13;100978.41;683112;28;1659;-50
2021/08/10 01:07:45;;;;;;;5.93;3.00;;;;;;;13.22;93.92;100985.28;690380;28;2296;-51
2021/08/10 01:08:11;;;;;;;6.65;3.40;;;;;;;13.21;94.24;100978.28;688255;28;4616;-51
2021/08/10 01:08:47;;;;;;;6.10;3.47;;;;;;;13.16;94.48;100980.09;687132;28;1656;-51
2021/08/10 01:09:13;;;;;;;6.78;3.63;;;;;;;13.13;94.93;100987.13;687089;28;6526;-50
2021/08/10 01:09:57;;;;;;;6.13;3.70;;;;;;;13.05;95.74;100982.81;686540;28;1642;-50
2021/08/10 01:10:29;;;;;;;8.15;3.72;;;;;;;13.06;94.92;100981.94;687280;28;1523;-51
2021/08/10 01:11:13;;;;;;;6.10;3.60;;;;;;;13.12;94.35;100983.63;686730;28;4254;-51
2021/08/10 01:11:59;;;;;;;5.35;3.33;;;;;;;13.12;94.42;100988.88;683948;28;4431;-50
2021/08/10 01:12:27;;;;;;;5.93;3.20;;;;;;;13.12;94.45;100986.25;686566;28;1484;-50
2021/08/10 01:13:16;;;;;;;5.28;3.33;;;;;;;13.09;94.55;100988.91;686722;28;1579;-50
2021/08/10 01:13:41;;;;;;;5.13;3.40;;;;;;;13.10;94.22;100988.03;689482;28;1648;-50
2021/08/10 01:14:07;;;;;;;6.13;3.47;;;;;;;13.09;94.35;100986.28;689297;28;4377;-50
2021/08/10 01:14:30;;;;;;;6.38;3.47;;;;;;;13.04;94.25;100982.84;689178;28;1538;-50
2021/08/10 01:14:53;;;;;;;6.32;3.38;;;;;;;13.00;95.17;100989.88;688064;28;4577;-52
2021/08/10 01:15:18;;;;;;;8.60;3.70;;;;;;;12.97;95.14;100983.78;686847;28;1423;-49
2021/08/10 01:15:45;;;;;;;6.82;3.70;;;;;;;12.93;96.12;100978.56;687152;28;1771;-56
2021/08/10 01:16:24;;;;;;;7.25;3.60;;;;;;;12.94;95.54;100982.94;684242;28;1621;-50
2021/08/10 01:17:07;;;;;;;7.00;3.45;;;;;;;12.94;95.62;100984.69;683781;28;4020;-50
2021/08/10 01:17:38;;;;;;;7.88;3.35;;;;;;;12.89;95.33;100982.09;686357;28;1943;-51
2021/08/10 01:18:08;;;;;;;6.32;3.40;;;;;;;12.93;94.90;100983.81;686599;28;5079;-50
2021/08/10 01:18:39;;;;;;;6.05;3.40;;;;;;;12.95;94.81;100984.66;688846;28;1513;-53
2021/08/10 01:19:26;;;;;;;7.47;3.60;;;;;;;12.95;95.12;100976.78;688469;28;1445;-50
2021/08/10 01:20:11;;;;;;;5.57;3.33;;;;;;;12.98;94.72;100977.66;686709;28;4301;-50
2021/08/10 01:20:52;;;;;;;7.03;3.45;;;;;;;12.93;95.06;100978.56;688525;28;4557;-50
2021/08/10 01:21:23;;;;;;;7.35;3.72;;;;;;;12.86;95.54;100979.53;686669;28;1675;-51
2021/08/10 01:21:58;;;;;;;5.43;3.40;;;;;;;12.86;95.26;100984.75;686941;28;1372;-50
2021/08/10 01:22:21;;;;;;;8.43;3.70;;;;;;;12.83;95.57;100982.16;684304;28;1695;-50
2021/08/10 01:22:47;;;;;;;6.40;3.55;;;;;;;12.84;95.91;100983.03;686186;28;4037;-51
2021/08/10 01:23:11;;;;;;;6.60;3.70;;;;;;;12.84;96.09;100986.53;685348;28;1892;-51
2021/08/10 01:23:34;;;;;;;6.55;3.63;;;;;;;12.86;95.78;100981.25;680865;28;1700;-51
2021/08/10 01:24:02;;;;;;;7.18;3.47;;;;;;;12.91;94.87;100980.31;680958;29;5154;-51
2021/08/10 01:24:30;;;;;;;6.53;3.22;;;;;;;12.93;94.67;100982.94;681995;28;1533;-51
2021/08/10 01:25:39;;;;;;;5.95;3.33;;;;;;;12.97;94.62;100976.78;682566;28;1434;-52
2021/08/10 01:26:25;;;;;;;7.25;3.80;;;;;;;12.94;94.24;100977.69;686461;28;1658;-53
2021/08/10 01:27:15;;;;;;;6.47;3.30;;;;;;;13.05;93.30;100982.81;693312;28;4524;-49
2021/08/10 01:28:20;;;;;;;6.78;3.70;;;;;;;12.95;94.74;100987.28;683293;28;1353;-51
2021/08/10 01:29:23;;;;;;;8.13;3.58;;;;;;;12.88;95.65;100979.50;688668;28;4250;-50
2021/08/10 01:30:00;;;;;;;8.85;3.90;;;;;;;12.82;96.06;100980.44;688970;28;4570;-52
2021/08/10 01:30:25;;;;;;;6.05;3.63;;;;;;;12.78;95.87;100979.56;687077;28;1462;-52
2021/08/10 01:31:07;;;;;;;7.72;4.18;;;;;;;12.73;96.20;100983.13;687033;28;1641;-52
2021/08/10 01:31:37;;;;;;;7.85;3.83;;;;;;;12.72;96.17;100978.75;686056;28;3873;-51
2021/08/10 01:32:02;;;;;;;6.93;3.70;;;;;;;12.70;96.45;100972.66;689330;28;2662;-50
2021/08/10 01:32:25;;;;;;;6.35;3.40;;;;;;;12.75;96.19;100974.38;686778;28;1717;-50
2021/08/10 01:32:50;;;;;;;8.00;3.70;;;;;;;12.75;96.43;100974.38;686653;28;4413;-50
2021/08/10 01:33:11;;;;;;;9.23;3.90;;;;;;;12.75;96.44;100969.13;684903;28;1507;-53
2021/08/10 01:33:38;;;;;;;11.90;4.32;;;;;;;12.72;96.80;100971.78;682244;28;1290;-51
2021/08/10 01:34:09;;;;;;;7.53;3.70;;;;;;;12.72;96.42;100978.75;679628;29;1230;-53
2021/08/10 01:34:41;;;;;;;6.30;3.65;;;;;;;12.76;95.51;100973.44;684340;28;4097;-51
2021/08/10 01:35:21;;;;;;;4.70;2.90;;;;;;;12.91;94.37;100976.84;686749;28;2851;-51
2021/08/10 01:35:42;;;;;;;5.85;3.15;;;;;;;12.90;94.46;100977.72;684100;28;4581;-50
2021/08/10 01:36:04;;;;;;;8.10;3.30;;;;;;;12.90;94.39;100977.72;687112;28;1278;-50
2021/08/10 01:36:25;;;;;;;7.72;3.45;;;;;;;12.92;93.83;100974.19;687369;28;1264;-52
2021/08/10 01:36:47;;;;;;;6.65;3.17;;;;;;;12.95;93.26;100971.53;684575;28;947;-52
2021/08/10 01:37:11;;;;;;;6.30;3.03;;;;;;;13.02;93.00;100974.97;682688;28;1352;-50
2021/08/10 01:37:38;;;;;;;6.00;3.20;;;;;;;12.98;94.08;100980.28;682769;28;4273;-49
2021/08/10 01:38:01;;;;;;;5.72;3.53;;;;;;;12.90;94.53;100973.38;680016;29;1992;-50
2021/08/10 01:38:27;;;;;;;5.80;3.53;;;;;;;12.84;95.11;100983.91;681907;28;1923;-50
2021/08/10 01:38:52;;;;;;;6.57;3.60;;;;;;;12.81;95.32;100981.31;684126;28;4696;-50
2021/08/10 01:39:15;;;;;;;7.95;3.80;;;;;;;12.77;95.85;100971.72;684000;28;1459;-52
2021/08/10 01:39:46;;;;;;;7.00;3.45;;;;;;;12.73;95.88;100970.88;688969;28;1961;-51
2021/08/10 01:40:10;;;;;;;6.65;3.60;;;;;;;12.73;95.84;100976.13;688907;28;1581;-52
2021/08/10 01:40:45;;;;;;;6.60;3.80;;;;;;;12.73;96.16;100972.63;690818;28;4310;-49
2021/08/10 01:41:07;;;;;;;7.47;3.70;;;;;;;12.73;95.76;100975.25;687477;28;1751;-50
2021/08/10 01:41:30;;;;;;;7.43;3.78;;;;;;;12.76;96.38;100969.97;686203;28;1626;-54
2021/08/10 01:41:51;;;;;;;7.60;4.03;;;;;;;12.73;96.47;100970.88;685993;28;4412;-51
2021/08/10 01:42:12;;;;;;;7.40;3.83;;;;;;;12.74;96.47;100969.13;685057;28;1324;-51
2021/08/10 01:42:35;;;;;;;7.07;3.30;;;;;;;12.80;95.65;100976.06;684601;28;1579;-50
2021/08/10 01:42:59;;;;;;;7.05;3.28;;;;;;;12.79;95.24;100962.06;685561;28;1224;-51
2021/08/10 01:43:21;;;;;;;7.15;3.50;;;;;;;12.77;95.57;100971.72;690479;28;3838;-54
2021/08/10 01:43:42;;;;;;;6.78;3.42;;;;;;;12.73;95.75;100970.00;689599;28;4224;-52
2021/08/10 01:44:05;;;;;;;6.90;3.63;;;;;;;12.71;95.97;100961.25;689117;28;1712;-52
2021/08/10 01:44:26;;;;;;;7.03;3.83;;;;;;;12.73;95.18;100967.38;686583;28;1575;-54
2021/08/10 01:44:49;;;;;;;6.63;3.47;;;;;;;12.77;95.34;100963.84;681365;28;4397;-51
2021/08/10 01:45:10;;;;;;;6.50;3.40;;;;;;;12.76;95.35;100964.72;685886;28;1451;-50
2021/08/10 01:45:37;;;;;;;6.07;3.50;;;;;;;12.74;95.45;100962.13;685781;28;1025;-51
2021/08/10 01:46:00;;;;;;;5.55;3.25;;;;;;;12.82;94.65;100969.94;687037;28;1627;-53
2021/08/10 01:46:26;;;;;;;5.80;3.38;;;;;;;12.90;94.25;100973.38;688097;28;3507;-50
2021/08/10 01:46:51;;;;;;;5.57;3.33;;;;;;;12.93;93.70;100962.81;688499;28;1679;-50
2021/08/10 01:47:12;;;;;;;5.35;3.42;;;;;;;12.93;93.83;100964.56;689267;28;1853;-51
2021/08/10 01:47:35;;;;;;;6.68;3.20;;;;;;;12.92;94.37;100966.31;686268;28;4442;-53
2021/08/10 01:47:58;;;;;;;8.45;3.40;;;;;;;12.87;94.93;100967.25;685252;28;1395;-50
2021/08/10 01:48:20;;;;;;;7.97;3.72;;;;;;;12.83;95.24;100966.41;683551;28;1448;-51
2021/08/10 01:48:43;;;;;;;8.45;3.90;;;;;;;12.81;95.74;100968.19;681643;29;1468;-51
2021/08/10 01:49:09;;;;;;;8.98;4.05;;;;;;;12.78;95.63;100966.47;683367;28;1460;-51
2021/08/10 01:49:31;;;;;;;8.02;3.88;;;;;;;12.80;95.00;100965.59;685844;28;4332;-50
2021/08/10 01:49:52;;;;;;;6.50;3.70;;;;;;;12.80;95.04;100966.44;687780;28;1940;-50
2021/08/10 01:50:15;;;;;;;6.68;3.90;;;;;;;12.80;95.48;100965.59;687548;28;1810;-51
2021/08/10 01:50:45;;;;;;;10.13;3.90;;;;;;;12.77;95.92;100967.34;685496;28;4426;-52
2021/08/10 01:51:11;;;;;;;7.05;3.60;;;;;;;12.75;95.91;100968.22;686054;28;1305;-51
2021/08/10 01:51:32;;;;;;;6.68;3.60;;;;;;;12.71;96.27;100961.25;686542;28;1494;-51
2021/08/10 01:51:58;;;;;;;10.82;3.95;;;;;;;12.69;96.24;100958.66;684370;28;1644;-50
2021/08/10 01:52:22;;;;;;;8.13;3.80;;;;;;;12.68;96.23;100958.69;684558;28;4114;-50
2021/08/10 01:52:51;;;;;;;7.88;3.70;;;;;;;12.66;96.56;100956.06;683982;28;1449;-49
2021/08/10 01:53:13;;;;;;;7.68;3.92;;;;;;;12.63;96.64;100955.22;684479;28;1725;-50
2021/08/10 01:53:35;;;;;;;9.45;4.15;;;;;;;12.62;97.19;100956.13;687118;28;1451;-51
2021/08/10 01:53:58;;;;;;;8.32;4.03;;;;;;;12.62;96.63;100961.38;686922;28;7327;-52
2021/08/10 01:54:21;;;;;;;6.35;3.60;;;;;;;12.64;96.60;100951.72;686909;28;1240;-50
2021/08/10 01:54:43;;;;;;;6.43;3.63;;;;;;;12.63;97.00;100948.25;685493;28;1723;-50
2021/08/10 01:55:05;;;;;;;7.78;3.97;;;;;;;12.62;96.96;100953.50;683650;28;1302;-50